Aviation Digital Data Service (ADDS)

Output produced by TAFs form (0847 UTC 25 April 2015)
found at http://www.aviationweather.gov/adds/tafs/
 
KSBY 250543Z 2506/2606 34003KT P6SM BKN250 
     FM251200 32005KT P6SM BKN150 
     FM251800 25005KT P6SM BKN080 
     FM252300 16003KT 5SM -RA BR SCT015 OVC025 
     FM260200 03004KT 4SM -RA BR BKN007 OVC015